sensor_id;sensor_type;location;lat;lon;timestamp;P1;durP1;ratioP1;P2;durP2;ratioP2
41139;SDS011;26881;48.784;9.192;2023-03-14T00:03:44;1.33;;;0.60;;
41139;SDS011;26881;48.784;9.192;2023-03-14T00:09:06;1.48;;;0.60;;
41139;SDS011;26881;48.784;9.192;2023-03-14T00:14:29;1.50;;;0.63;;
41139;SDS011;26881;48.784;9.192;2023-03-14T00:19:51;0.98;;;0.70;;
41139;SDS011;26881;48.784;9.192;2023-03-14T00:25:15;3.33;;;0.60;;
41139;SDS011;26881;48.784;9.192;2023-03-14T00:30:37;0.93;;;0.47;;
41139;SDS011;26881;48.784;9.192;2023-03-14T00:35:59;0.70;;;0.68;;
41139;SDS011;26881;48.784;9.192;2023-03-14T00:41:23;2.92;;;1.10;;
41139;SDS011;26881;48.784;9.192;2023-03-14T00:46:45;3.28;;;0.77;;
41139;SDS011;26881;48.784;9.192;2023-03-14T00:52:07;2.08;;;0.70;;
41139;SDS011;26881;48.784;9.192;2023-03-14T00:57:29;4.00;;;0.73;;
41139;SDS011;26881;48.784;9.192;2023-03-14T01:02:51;1.05;;;0.85;;
41139;SDS011;26881;48.784;9.192;2023-03-14T01:08:13;2.08;;;0.57;;
41139;SDS011;26881;48.784;9.192;2023-03-14T01:13:35;0.60;;;0.60;;
41139;SDS011;26881;48.784;9.192;2023-03-14T01:18:58;0.90;;;0.50;;
41139;SDS011;26881;48.784;9.192;2023-03-14T01:24:19;0.52;;;0.45;;
41139;SDS011;26881;48.784;9.192;2023-03-14T01:29:42;2.10;;;0.60;;
41139;SDS011;26881;48.784;9.192;2023-03-14T01:35:03;2.30;;;0.60;;
41139;SDS011;26881;48.784;9.192;2023-03-14T01:40:25;1.05;;;0.40;;
41139;SDS011;26881;48.784;9.192;2023-03-14T01:57:13;0.47;;;0.47;;
41139;SDS011;26881;48.784;9.192;2023-03-14T02:02:43;0.55;;;0.50;;
41139;SDS011;26881;48.784;9.192;2023-03-14T02:08:08;3.00;;;0.50;;
41139;SDS011;26881;48.784;9.192;2023-03-14T02:13:32;4.65;;;0.73;;
41139;SDS011;26881;48.784;9.192;2023-03-14T02:18:54;2.10;;;0.60;;
41139;SDS011;26881;48.784;9.192;2023-03-14T02:30:05;1.30;;;0.60;;
41139;SDS011;26881;48.784;9.192;2023-03-14T02:35:29;1.65;;;0.65;;
41139;SDS011;26881;48.784;9.192;2023-03-14T02:40:56;2.88;;;0.60;;
41139;SDS011;26881;48.784;9.192;2023-03-14T02:46:18;2.65;;;0.50;;
41139;SDS011;26881;48.784;9.192;2023-03-14T02:51:43;0.30;;;0.30;;
41139;SDS011;26881;48.784;9.192;2023-03-14T02:57:06;0.85;;;0.50;;
41139;SDS011;26881;48.784;9.192;2023-03-14T03:02:28;2.42;;;0.88;;
41139;SDS011;26881;48.784;9.192;2023-03-14T03:07:50;1.75;;;0.60;;
41139;SDS011;26881;48.784;9.192;2023-03-14T03:13:12;1.15;;;0.40;;
41139;SDS011;26881;48.784;9.192;2023-03-14T03:18:34;1.13;;;0.40;;
41139;SDS011;26881;48.784;9.192;2023-03-14T03:23:56;3.90;;;0.90;;
41139;SDS011;26881;48.784;9.192;2023-03-14T03:29:19;3.03;;;0.57;;
41139;SDS011;26881;48.784;9.192;2023-03-14T03:34:41;0.77;;;0.50;;
41139;SDS011;26881;48.784;9.192;2023-03-14T03:40:03;1.50;;;0.60;;
41139;SDS011;26881;48.784;9.192;2023-03-14T03:45:28;2.38;;;0.57;;
41139;SDS011;26881;48.784;9.192;2023-03-14T03:50:50;2.20;;;0.73;;
41139;SDS011;26881;48.784;9.192;2023-03-14T03:56:12;2.58;;;0.98;;
41139;SDS011;26881;48.784;9.192;2023-03-14T04:01:33;3.15;;;0.77;;
41139;SDS011;26881;48.784;9.192;2023-03-14T04:06:55;3.20;;;1.20;;
41139;SDS011;26881;48.784;9.192;2023-03-14T04:12:17;3.15;;;0.90;;
41139;SDS011;26881;48.784;9.192;2023-03-14T04:17:39;3.67;;;1.30;;
41139;SDS011;26881;48.784;9.192;2023-03-14T04:23:01;4.80;;;1.05;;
41139;SDS011;26881;48.784;9.192;2023-03-14T04:28:22;2.03;;;0.90;;
41139;SDS011;26881;48.784;9.192;2023-03-14T04:33:44;3.78;;;1.02;;
41139;SDS011;26881;48.784;9.192;2023-03-14T04:39:07;3.13;;;1.10;;
41139;SDS011;26881;48.784;9.192;2023-03-14T04:44:29;4.50;;;1.02;;
41139;SDS011;26881;48.784;9.192;2023-03-14T04:49:51;3.65;;;0.90;;
41139;SDS011;26881;48.784;9.192;2023-03-14T04:55:12;5.57;;;1.05;;
41139;SDS011;26881;48.784;9.192;2023-03-14T05:00:34;4.38;;;1.08;;
41139;SDS011;26881;48.784;9.192;2023-03-14T05:05:59;3.92;;;1.00;;
41139;SDS011;26881;48.784;9.192;2023-03-14T05:11:22;4.90;;;1.10;;
41139;SDS011;26881;48.784;9.192;2023-03-14T05:16:44;3.35;;;0.85;;
41139;SDS011;26881;48.784;9.192;2023-03-14T05:22:06;4.65;;;1.20;;
41139;SDS011;26881;48.784;9.192;2023-03-14T05:27:28;4.30;;;1.15;;
41139;SDS011;26881;48.784;9.192;2023-03-14T05:32:49;2.67;;;0.90;;
41139;SDS011;26881;48.784;9.192;2023-03-14T05:38:11;4.43;;;0.88;;
41139;SDS011;26881;48.784;9.192;2023-03-14T05:43:33;2.67;;;0.77;;
41139;SDS011;26881;48.784;9.192;2023-03-14T05:48:55;3.55;;;1.15;;
41139;SDS011;26881;48.784;9.192;2023-03-14T05:54:16;5.82;;;1.10;;
41139;SDS011;26881;48.784;9.192;2023-03-14T05:59:38;2.63;;;0.90;;
41139;SDS011;26881;48.784;9.192;2023-03-14T06:05:00;2.88;;;1.10;;
41139;SDS011;26881;48.784;9.192;2023-03-14T06:10:22;2.03;;;0.85;;
41139;SDS011;26881;48.784;9.192;2023-03-14T06:15:44;3.33;;;0.93;;
41139;SDS011;26881;48.784;9.192;2023-03-14T06:21:06;1.75;;;0.80;;
41139;SDS011;26881;48.784;9.192;2023-03-14T06:26:28;4.55;;;1.23;;
41139;SDS011;26881;48.784;9.192;2023-03-14T06:31:50;2.97;;;0.95;;
41139;SDS011;26881;48.784;9.192;2023-03-14T06:37:11;2.80;;;0.75;;
41139;SDS011;26881;48.784;9.192;2023-03-14T06:42:33;4.95;;;0.88;;
41139;SDS011;26881;48.784;9.192;2023-03-14T06:47:55;4.47;;;1.27;;
41139;SDS011;26881;48.784;9.192;2023-03-14T06:53:17;2.65;;;0.95;;
41139;SDS011;26881;48.784;9.192;2023-03-14T06:58:39;4.00;;;1.40;;
41139;SDS011;26881;48.784;9.192;2023-03-14T07:04:01;1.50;;;0.60;;
41139;SDS011;26881;48.784;9.192;2023-03-14T07:09:23;3.38;;;1.13;;
41139;SDS011;26881;48.784;9.192;2023-03-14T07:14:45;7.80;;;1.73;;
41139;SDS011;26881;48.784;9.192;2023-03-14T07:20:07;3.75;;;1.10;;
41139;SDS011;26881;48.784;9.192;2023-03-14T07:25:31;5.22;;;0.85;;
41139;SDS011;26881;48.784;9.192;2023-03-14T07:30:53;3.20;;;1.08;;
41139;SDS011;26881;48.784;9.192;2023-03-14T07:36:17;2.42;;;0.70;;
41139;SDS011;26881;48.784;9.192;2023-03-14T07:41:38;1.42;;;0.70;;
41139;SDS011;26881;48.784;9.192;2023-03-14T07:47:00;3.35;;;1.17;;
41139;SDS011;26881;48.784;9.192;2023-03-14T07:52:23;3.58;;;0.80;;
41139;SDS011;26881;48.784;9.192;2023-03-14T07:57:46;2.83;;;0.98;;
41139;SDS011;26881;48.784;9.192;2023-03-14T08:03:08;2.83;;;0.75;;
41139;SDS011;26881;48.784;9.192;2023-03-14T08:08:30;3.75;;;1.00;;
41139;SDS011;26881;48.784;9.192;2023-03-14T08:13:52;5.38;;;0.90;;
41139;SDS011;26881;48.784;9.192;2023-03-14T08:19:13;1.85;;;0.77;;
41139;SDS011;26881;48.784;9.192;2023-03-14T08:24:35;3.80;;;0.77;;
41139;SDS011;26881;48.784;9.192;2023-03-14T08:29:57;3.38;;;0.60;;
41139;SDS011;26881;48.784;9.192;2023-03-14T08:35:19;1.65;;;0.80;;
41139;SDS011;26881;48.784;9.192;2023-03-14T08:40:41;1.90;;;0.88;;
41139;SDS011;26881;48.784;9.192;2023-03-14T08:46:03;0.70;;;0.50;;
41139;SDS011;26881;48.784;9.192;2023-03-14T08:51:25;5.97;;;0.80;;
41139;SDS011;26881;48.784;9.192;2023-03-14T08:56:46;1.92;;;0.80;;
41139;SDS011;26881;48.784;9.192;2023-03-14T09:02:09;3.53;;;0.70;;
41139;SDS011;26881;48.784;9.192;2023-03-14T09:07:34;0.90;;;0.50;;
41139;SDS011;26881;48.784;9.192;2023-03-14T09:12:56;8.48;;;1.30;;
41139;SDS011;26881;48.784;9.192;2023-03-14T09:18:19;0.38;;;0.38;;
41139;SDS011;26881;48.784;9.192;2023-03-14T09:23:41;1.33;;;0.60;;
41139;SDS011;26881;48.784;9.192;2023-03-14T09:29:04;3.70;;;0.85;;
41139;SDS011;26881;48.784;9.192;2023-03-14T09:34:26;2.80;;;0.60;;
41139;SDS011;26881;48.784;9.192;2023-03-14T09:39:48;0.60;;;0.40;;
41139;SDS011;26881;48.784;9.192;2023-03-14T09:45:15;1.35;;;0.55;;
41139;SDS011;26881;48.784;9.192;2023-03-14T09:50:46;4.03;;;0.85;;
41139;SDS011;26881;48.784;9.192;2023-03-14T09:56:16;3.60;;;0.68;;
41139;SDS011;26881;48.784;9.192;2023-03-14T10:01:44;0.80;;;0.60;;
41139;SDS011;26881;48.784;9.192;2023-03-14T10:07:07;0.93;;;0.40;;
41139;SDS011;26881;48.784;9.192;2023-03-14T10:12:36;1.20;;;0.40;;
41139;SDS011;26881;48.784;9.192;2023-03-14T10:18:01;1.92;;;0.40;;
41139;SDS011;26881;48.784;9.192;2023-03-14T10:23:26;0.32;;;0.32;;
41139;SDS011;26881;48.784;9.192;2023-03-14T10:28:51;0.95;;;0.63;;
41139;SDS011;26881;48.784;9.192;2023-03-14T10:34:21;1.92;;;0.70;;
41139;SDS011;26881;48.784;9.192;2023-03-14T10:56:37;1.80;;;0.47;;
41139;SDS011;26881;48.784;9.192;2023-03-14T11:02:00;0.45;;;0.35;;
41139;SDS011;26881;48.784;9.192;2023-03-14T11:07:43;1.77;;;0.55;;
41139;SDS011;26881;48.784;9.192;2023-03-14T11:24:13;1.48;;;0.82;;
41139;SDS011;26881;48.784;9.192;2023-03-14T11:29:54;2.22;;;0.60;;
41139;SDS011;26881;48.784;9.192;2023-03-14T11:35:47;3.20;;;0.60;;
41139;SDS011;26881;48.784;9.192;2023-03-14T11:46:48;0.57;;;0.57;;
41139;SDS011;26881;48.784;9.192;2023-03-14T11:52:35;1.73;;;0.70;;
41139;SDS011;26881;48.784;9.192;2023-03-14T11:58:20;2.55;;;1.00;;
41139;SDS011;26881;48.784;9.192;2023-03-14T12:03:54;0.65;;;0.50;;
41139;SDS011;26881;48.784;9.192;2023-03-14T12:09:20;0.52;;;0.52;;
41139;SDS011;26881;48.784;9.192;2023-03-14T12:14:44;2.97;;;0.60;;
41139;SDS011;26881;48.784;9.192;2023-03-14T12:25:36;3.15;;;0.50;;
41139;SDS011;26881;48.784;9.192;2023-03-14T12:31:20;0.40;;;0.40;;
41139;SDS011;26881;48.784;9.192;2023-03-14T12:37:04;1.65;;;0.50;;
41139;SDS011;26881;48.784;9.192;2023-03-14T13:00:02;3.72;;;0.85;;
41139;SDS011;26881;48.784;9.192;2023-03-14T13:05:37;0.77;;;0.70;;
41139;SDS011;26881;48.784;9.192;2023-03-14T13:11:18;0.50;;;0.40;;
41139;SDS011;26881;48.784;9.192;2023-03-14T13:16:40;1.02;;;0.57;;
41139;SDS011;26881;48.784;9.192;2023-03-14T13:22:06;2.70;;;0.77;;
41139;SDS011;26881;48.784;9.192;2023-03-14T13:27:37;3.05;;;1.00;;
41139;SDS011;26881;48.784;9.192;2023-03-14T13:32:59;4.63;;;0.90;;
41139;SDS011;26881;48.784;9.192;2023-03-14T13:38:26;3.63;;;1.00;;
41139;SDS011;26881;48.784;9.192;2023-03-14T13:43:50;2.67;;;1.00;;
41139;SDS011;26881;48.784;9.192;2023-03-14T13:49:13;2.22;;;0.80;;
41139;SDS011;26881;48.784;9.192;2023-03-14T13:54:45;2.47;;;0.70;;
41139;SDS011;26881;48.784;9.192;2023-03-14T14:00:07;3.20;;;0.80;;
41139;SDS011;26881;48.784;9.192;2023-03-14T14:05:38;2.50;;;0.57;;
41139;SDS011;26881;48.784;9.192;2023-03-14T14:11:02;3.50;;;0.63;;
41139;SDS011;26881;48.784;9.192;2023-03-14T14:16:26;2.30;;;0.82;;
41139;SDS011;26881;48.784;9.192;2023-03-14T14:21:50;6.25;;;0.90;;
41139;SDS011;26881;48.784;9.192;2023-03-14T14:27:19;3.28;;;0.70;;
41139;SDS011;26881;48.784;9.192;2023-03-14T14:33:10;1.08;;;0.60;;
41139;SDS011;26881;48.784;9.192;2023-03-14T14:38:42;1.13;;;0.50;;
41139;SDS011;26881;48.784;9.192;2023-03-14T14:44:04;3.83;;;0.80;;
41139;SDS011;26881;48.784;9.192;2023-03-14T14:49:30;3.55;;;1.23;;
41139;SDS011;26881;48.784;9.192;2023-03-14T14:54:59;4.38;;;1.00;;
41139;SDS011;26881;48.784;9.192;2023-03-14T15:00:26;8.57;;;1.20;;
41139;SDS011;26881;48.784;9.192;2023-03-14T15:05:48;5.93;;;1.10;;
41139;SDS011;26881;48.784;9.192;2023-03-14T15:16:39;2.85;;;0.98;;
41139;SDS011;26881;48.784;9.192;2023-03-14T15:22:02;4.30;;;1.10;;
41139;SDS011;26881;48.784;9.192;2023-03-14T15:27:24;4.80;;;1.00;;
41139;SDS011;26881;48.784;9.192;2023-03-14T15:32:47;4.63;;;0.93;;
41139;SDS011;26881;48.784;9.192;2023-03-14T15:38:09;5.72;;;1.23;;
41139;SDS011;26881;48.784;9.192;2023-03-14T15:43:35;5.10;;;1.08;;
41139;SDS011;26881;48.784;9.192;2023-03-14T15:48:57;4.35;;;1.17;;
41139;SDS011;26881;48.784;9.192;2023-03-14T15:54:19;4.65;;;1.15;;
41139;SDS011;26881;48.784;9.192;2023-03-14T15:59:41;4.25;;;1.23;;
41139;SDS011;26881;48.784;9.192;2023-03-14T16:05:02;5.03;;;1.08;;
41139;SDS011;26881;48.784;9.192;2023-03-14T16:10:24;3.60;;;1.33;;
41139;SDS011;26881;48.784;9.192;2023-03-14T16:15:53;5.28;;;1.05;;
41139;SDS011;26881;48.784;9.192;2023-03-14T16:21:17;4.60;;;1.10;;
41139;SDS011;26881;48.784;9.192;2023-03-14T16:26:40;3.67;;;1.02;;
41139;SDS011;26881;48.784;9.192;2023-03-14T16:32:01;5.47;;;1.33;;
41139;SDS011;26881;48.784;9.192;2023-03-14T16:37:24;3.53;;;1.20;;
41139;SDS011;26881;48.784;9.192;2023-03-14T16:42:47;3.55;;;1.33;;
41139;SDS011;26881;48.784;9.192;2023-03-14T16:48:40;4.18;;;1.40;;
41139;SDS011;26881;48.784;9.192;2023-03-14T16:54:03;5.05;;;1.60;;
41139;SDS011;26881;48.784;9.192;2023-03-14T16:59:24;3.97;;;1.30;;
41139;SDS011;26881;48.784;9.192;2023-03-14T17:04:49;2.20;;;1.13;;
41139;SDS011;26881;48.784;9.192;2023-03-14T17:10:11;3.85;;;1.55;;
41139;SDS011;26881;48.784;9.192;2023-03-14T17:15:33;4.30;;;1.20;;
41139;SDS011;26881;48.784;9.192;2023-03-14T17:20:55;5.97;;;1.20;;
41139;SDS011;26881;48.784;9.192;2023-03-14T17:26:17;3.70;;;1.42;;
41139;SDS011;26881;48.784;9.192;2023-03-14T17:31:39;4.05;;;1.65;;
41139;SDS011;26881;48.784;9.192;2023-03-14T17:37:01;4.18;;;1.33;;
41139;SDS011;26881;48.784;9.192;2023-03-14T17:42:23;5.20;;;1.35;;
41139;SDS011;26881;48.784;9.192;2023-03-14T17:47:45;6.60;;;1.60;;
41139;SDS011;26881;48.784;9.192;2023-03-14T17:53:07;6.47;;;1.50;;
41139;SDS011;26881;48.784;9.192;2023-03-14T17:58:29;5.63;;;1.50;;
41139;SDS011;26881;48.784;9.192;2023-03-14T18:03:54;4.68;;;1.75;;
41139;SDS011;26881;48.784;9.192;2023-03-14T18:09:17;5.57;;;1.35;;
41139;SDS011;26881;48.784;9.192;2023-03-14T18:14:38;6.20;;;1.35;;
41139;SDS011;26881;48.784;9.192;2023-03-14T18:20:04;3.72;;;1.23;;
41139;SDS011;26881;48.784;9.192;2023-03-14T18:25:33;5.32;;;1.45;;
41139;SDS011;26881;48.784;9.192;2023-03-14T18:31:01;4.13;;;1.27;;
41139;SDS011;26881;48.784;9.192;2023-03-14T18:36:26;3.53;;;1.40;;
41139;SDS011;26881;48.784;9.192;2023-03-14T18:41:49;5.18;;;1.73;;
41139;SDS011;26881;48.784;9.192;2023-03-14T18:47:11;2.38;;;1.75;;
41139;SDS011;26881;48.784;9.192;2023-03-14T18:52:33;5.82;;;1.70;;
41139;SDS011;26881;48.784;9.192;2023-03-14T18:57:55;1.92;;;1.10;;
41139;SDS011;26881;48.784;9.192;2023-03-14T19:03:17;3.67;;;1.67;;
41139;SDS011;26881;48.784;9.192;2023-03-14T19:08:39;3.67;;;1.63;;
41139;SDS011;26881;48.784;9.192;2023-03-14T19:14:02;4.18;;;1.48;;
41139;SDS011;26881;48.784;9.192;2023-03-14T19:19:24;2.22;;;0.98;;
41139;SDS011;26881;48.784;9.192;2023-03-14T19:24:46;1.58;;;0.82;;
41139;SDS011;26881;48.784;9.192;2023-03-14T19:30:08;2.42;;;1.20;;
41139;SDS011;26881;48.784;9.192;2023-03-14T19:35:31;6.40;;;1.63;;
41139;SDS011;26881;48.784;9.192;2023-03-14T19:40:57;4.68;;;1.90;;
41139;SDS011;26881;48.784;9.192;2023-03-14T19:46:20;3.70;;;1.42;;
41139;SDS011;26881;48.784;9.192;2023-03-14T19:51:42;3.20;;;1.30;;
41139;SDS011;26881;48.784;9.192;2023-03-14T19:57:04;5.00;;;1.33;;
41139;SDS011;26881;48.784;9.192;2023-03-14T20:02:26;3.78;;;1.50;;
41139;SDS011;26881;48.784;9.192;2023-03-14T20:07:50;3.20;;;1.90;;
41139;SDS011;26881;48.784;9.192;2023-03-14T20:13:12;3.72;;;1.55;;
41139;SDS011;26881;48.784;9.192;2023-03-14T20:18:42;2.85;;;1.23;;
41139;SDS011;26881;48.784;9.192;2023-03-14T20:24:04;4.72;;;1.70;;
41139;SDS011;26881;48.784;9.192;2023-03-14T20:29:26;7.60;;;2.03;;
41139;SDS011;26881;48.784;9.192;2023-03-14T20:34:48;9.60;;;3.28;;
41139;SDS011;26881;48.784;9.192;2023-03-14T20:40:11;6.55;;;2.95;;
41139;SDS011;26881;48.784;9.192;2023-03-14T20:45:34;5.95;;;3.22;;
41139;SDS011;26881;48.784;9.192;2023-03-14T20:50:56;4.45;;;2.25;;
41139;SDS011;26881;48.784;9.192;2023-03-14T20:56:18;3.60;;;1.65;;
41139;SDS011;26881;48.784;9.192;2023-03-14T21:01:40;5.03;;;1.60;;
41139;SDS011;26881;48.784;9.192;2023-03-14T21:07:02;4.15;;;1.60;;
41139;SDS011;26881;48.784;9.192;2023-03-14T21:12:24;2.80;;;1.30;;
41139;SDS011;26881;48.784;9.192;2023-03-14T21:17:46;5.40;;;1.50;;
41139;SDS011;26881;48.784;9.192;2023-03-14T21:23:08;4.28;;;1.30;;
41139;SDS011;26881;48.784;9.192;2023-03-14T21:28:32;4.05;;;1.60;;
41139;SDS011;26881;48.784;9.192;2023-03-14T21:33:54;4.10;;;1.65;;
41139;SDS011;26881;48.784;9.192;2023-03-14T21:39:15;6.10;;;1.48;;
41139;SDS011;26881;48.784;9.192;2023-03-14T21:44:37;4.20;;;1.20;;
41139;SDS011;26881;48.784;9.192;2023-03-14T21:49:59;4.20;;;1.40;;
41139;SDS011;26881;48.784;9.192;2023-03-14T21:55:22;2.20;;;1.15;;
41139;SDS011;26881;48.784;9.192;2023-03-14T22:00:46;4.03;;;1.38;;
41139;SDS011;26881;48.784;9.192;2023-03-14T22:06:09;3.05;;;1.00;;
41139;SDS011;26881;48.784;9.192;2023-03-14T22:11:31;3.87;;;1.23;;
41139;SDS011;26881;48.784;9.192;2023-03-14T22:16:53;3.83;;;1.45;;
41139;SDS011;26881;48.784;9.192;2023-03-14T22:22:15;2.75;;;1.23;;
41139;SDS011;26881;48.784;9.192;2023-03-14T22:27:37;2.67;;;1.20;;
41139;SDS011;26881;48.784;9.192;2023-03-14T22:32:59;2.03;;;1.00;;
41139;SDS011;26881;48.784;9.192;2023-03-14T22:38:21;0.85;;;0.70;;
41139;SDS011;26881;48.784;9.192;2023-03-14T22:43:42;0.77;;;0.77;;
41139;SDS011;26881;48.784;9.192;2023-03-14T22:49:04;0.80;;;0.80;;
41139;SDS011;26881;48.784;9.192;2023-03-14T22:54:26;0.88;;;0.88;;
41139;SDS011;26881;48.784;9.192;2023-03-14T22:59:48;1.03;;;0.90;;
41139;SDS011;26881;48.784;9.192;2023-03-14T23:05:10;1.30;;;1.10;;
41139;SDS011;26881;48.784;9.192;2023-03-14T23:10:31;1.20;;;1.10;;
41139;SDS011;26881;48.784;9.192;2023-03-14T23:15:53;2.03;;;1.40;;
41139;SDS011;26881;48.784;9.192;2023-03-14T23:21:16;1.50;;;1.30;;
41139;SDS011;26881;48.784;9.192;2023-03-14T23:26:39;3.83;;;1.33;;
41139;SDS011;26881;48.784;9.192;2023-03-14T23:32:01;2.40;;;1.73;;
41139;SDS011;26881;48.784;9.192;2023-03-14T23:37:23;3.70;;;1.70;;
41139;SDS011;26881;48.784;9.192;2023-03-14T23:42:46;2.15;;;1.95;;
41139;SDS011;26881;48.784;9.192;2023-03-14T23:48:09;2.53;;;1.87;;
41139;SDS011;26881;48.784;9.192;2023-03-14T23:53:31;4.73;;;2.47;;
41139;SDS011;26881;48.784;9.192;2023-03-14T23:58:53;4.37;;;2.20;;
